createdAt,value
2019-05-23T00:00:01.202Z,6.37
2019-05-23T00:02:41.963Z,7.80
2019-05-23T00:05:19.660Z,7.50
2019-05-23T00:07:49.011Z,9.73
2019-05-23T00:10:25.121Z,6.47
2019-05-23T00:13:01.285Z,7.03
2019-05-23T00:15:36.040Z,6.40
2019-05-23T00:18:06.003Z,8.47
2019-05-23T00:20:35.797Z,7.12
2019-05-23T00:23:07.101Z,8.70
2019-05-23T00:25:36.771Z,11.68
2019-05-23T00:28:07.003Z,7.53
2019-05-23T00:30:53.924Z,7.67
2019-05-23T00:33:27.930Z,8.77
2019-05-23T00:35:57.514Z,7.20
2019-05-23T00:38:26.875Z,6.40
2019-05-23T00:40:56.127Z,7.67
2019-05-23T00:43:25.652Z,7.00
2019-05-23T00:45:55.433Z,9.03
2019-05-23T00:48:24.977Z,9.10
2019-05-23T00:50:54.238Z,7.72
2019-05-23T00:53:24.478Z,7.70
2019-05-23T00:55:54.550Z,8.53
2019-05-23T00:58:25.345Z,6.60
2019-05-23T01:00:56.342Z,6.97
2019-05-23T01:03:27.933Z,7.30
2019-05-23T01:05:57.251Z,6.73
2019-05-23T01:08:26.661Z,7.12
2019-05-23T01:10:56.162Z,9.97
2019-05-23T01:13:27.203Z,6.72
2019-05-23T01:15:56.033Z,7.00
2019-05-23T01:18:25.246Z,9.60
2019-05-23T01:21:12.043Z,9.17
2019-05-23T01:23:44.765Z,9.80
2019-05-23T01:26:14.842Z,7.20
2019-05-23T01:28:44.368Z,9.27
2019-05-23T01:31:18.315Z,7.90
2019-05-23T01:33:49.505Z,9.08
2019-05-23T01:36:20.169Z,12.73
2019-05-23T01:38:49.309Z,9.27
2019-05-23T01:41:18.475Z,9.73
2019-05-23T01:43:49.534Z,6.63
2019-05-23T01:46:18.996Z,8.57
2019-05-23T01:48:49.239Z,7.93
2019-05-23T01:51:18.599Z,7.83
2019-05-23T01:53:48.387Z,7.60
2019-05-23T01:56:17.456Z,10.97
2019-05-23T01:58:46.885Z,9.47
2019-05-23T02:01:15.819Z,17.10
2019-05-23T02:03:46.318Z,9.70
2019-05-23T02:06:15.290Z,11.97
2019-05-23T02:08:44.365Z,8.03
2019-05-23T02:11:13.441Z,9.00
2019-05-23T02:13:43.962Z,7.63
2019-05-23T02:16:14.884Z,7.45
2019-05-23T02:18:45.767Z,9.90
2019-05-23T02:21:19.230Z,12.57
2019-05-23T02:23:48.914Z,10.18
2019-05-23T02:26:22.247Z,7.20
2019-05-23T02:28:52.519Z,11.93
2019-05-23T02:31:22.155Z,9.97
2019-05-23T02:33:51.381Z,8.90
2019-05-23T02:36:21.401Z,8.20
2019-05-23T02:39:01.026Z,9.93
2019-05-23T02:41:52.879Z,11.03
2019-05-23T02:44:24.448Z,10.20
2019-05-23T02:47:16.986Z,10.30
2019-05-23T02:49:49.135Z,11.03
2019-05-23T02:52:46.296Z,12.90
2019-05-23T02:55:27.692Z,10.40
2019-05-23T02:58:01.205Z,14.63
2019-05-23T03:00:54.190Z,11.73
2019-05-23T03:03:24.717Z,10.50
2019-05-23T03:05:55.521Z,11.60
2019-05-23T03:08:25.499Z,9.73
2019-05-23T03:11:17.353Z,12.30
2019-05-23T03:13:48.394Z,11.17
2019-05-23T03:16:21.932Z,11.93
2019-05-23T03:18:57.818Z,11.27
2019-05-23T03:21:26.714Z,11.60
2019-05-23T03:23:58.308Z,13.80
2019-05-23T03:27:10.019Z,12.20
2019-05-23T03:29:43.691Z,11.83
2019-05-23T03:32:36.897Z,10.60
2019-05-23T03:35:06.346Z,12.70
2019-05-23T03:37:36.561Z,10.93
2019-05-23T03:40:05.687Z,11.20
2019-05-23T03:42:34.982Z,12.73
2019-05-23T03:45:05.383Z,11.83
2019-05-23T03:47:34.675Z,14.80
2019-05-23T03:50:05.171Z,13.17
2019-05-23T03:52:35.126Z,13.43
2019-05-23T03:55:05.663Z,14.60
2019-05-23T03:57:34.572Z,13.17
2019-05-23T04:00:03.589Z,12.73
2019-05-23T04:02:32.366Z,12.83
2019-05-23T04:05:01.786Z,13.37
2019-05-23T04:07:31.948Z,13.77
2019-05-23T04:10:01.274Z,14.63
2019-05-23T04:12:30.510Z,19.50
2019-05-23T04:14:59.442Z,12.80
2019-05-23T04:17:28.272Z,17.70
2019-05-23T04:19:57.110Z,14.67
2019-05-23T04:22:26.722Z,13.23
2019-05-23T04:24:55.961Z,10.93
2019-05-23T04:27:25.149Z,14.20
2019-05-23T04:29:54.168Z,12.57
2019-05-23T04:32:23.243Z,12.47
2019-05-23T04:34:52.582Z,14.90
2019-05-23T04:37:22.061Z,18.25
2019-05-23T04:39:51.314Z,14.40
2019-05-23T04:42:20.338Z,15.83
2019-05-23T04:44:49.662Z,15.10
2019-05-23T04:47:19.692Z,17.17
2019-05-23T04:49:48.451Z,15.83
2019-05-23T04:52:17.600Z,16.80
2019-05-23T04:54:46.683Z,14.00
2019-05-23T04:57:16.647Z,19.43
2019-05-23T04:59:46.651Z,16.53
2019-05-23T05:02:25.686Z,16.30
2019-05-23T05:04:46.541Z,19.60
2019-05-23T05:07:15.733Z,18.40
2019-05-23T05:09:46.599Z,18.77
2019-05-23T05:12:17.149Z,20.07
2019-05-23T05:14:46.015Z,26.77
2019-05-23T05:17:14.826Z,17.77
2019-05-23T05:19:43.667Z,20.83
2019-05-23T05:22:12.638Z,15.93
2019-05-23T05:24:41.369Z,20.63
2019-05-23T05:27:10.930Z,16.90
2019-05-23T05:29:40.139Z,24.10
2019-05-23T05:32:10.275Z,18.47
2019-05-23T05:34:39.473Z,20.77
2019-05-23T05:37:08.372Z,21.23
2019-05-23T05:39:37.141Z,21.10
2019-05-23T05:42:08.574Z,23.40
2019-05-23T05:44:38.405Z,17.90
2019-05-23T05:47:08.792Z,20.67
2019-05-23T05:49:41.944Z,18.17
2019-05-23T05:52:08.524Z,21.33
2019-05-23T05:54:37.490Z,20.70
2019-05-23T05:57:06.564Z,21.77
2019-05-23T05:59:35.672Z,22.30
2019-05-23T06:02:08.177Z,20.23
2019-05-23T06:04:37.493Z,18.90
2019-05-23T06:07:25.271Z,19.37
2019-05-23T06:09:54.804Z,14.80
2019-05-23T06:12:23.869Z,16.17
2019-05-23T06:14:52.906Z,15.97
2019-05-23T06:17:23.406Z,21.30
2019-05-23T06:19:52.487Z,17.00
2019-05-23T06:22:22.324Z,20.20
2019-05-23T06:24:54.295Z,17.03
2019-05-23T06:27:22.423Z,21.82
2019-05-23T06:29:51.341Z,14.80
2019-05-23T06:32:22.198Z,18.43
2019-05-23T06:34:52.473Z,14.53
2019-05-23T06:37:22.229Z,17.07
2019-05-23T06:39:51.219Z,16.80
2019-05-23T06:42:20.290Z,16.93
2019-05-23T06:44:51.603Z,15.10
2019-05-23T06:47:20.739Z,17.20
2019-05-23T06:49:49.547Z,12.33
2019-05-23T06:52:21.514Z,12.67
2019-05-23T06:54:50.301Z,13.80
2019-05-23T06:57:19.653Z,14.80
2019-05-23T06:59:48.833Z,17.90
2019-05-23T07:02:17.962Z,14.30
2019-05-23T07:04:48.117Z,20.27
2019-05-23T07:07:17.416Z,12.97
2019-05-23T07:09:47.454Z,12.70
2019-05-23T07:12:16.587Z,12.73
2019-05-23T07:14:45.492Z,8.20
2019-05-23T07:17:17.857Z,10.20
2019-05-23T07:19:47.062Z,4.67
2019-05-23T07:22:19.019Z,5.13
2019-05-23T07:24:57.326Z,6.67
2019-05-23T07:27:18.757Z,6.17
2019-05-23T07:29:47.645Z,6.40
2019-05-23T07:32:16.581Z,11.27
2019-05-23T07:34:45.582Z,11.23
2019-05-23T07:37:14.651Z,11.10
2019-05-23T07:39:43.379Z,15.07
2019-05-23T07:42:12.633Z,16.23
2019-05-23T07:44:48.210Z,16.10
2019-05-23T07:47:13.370Z,17.30
2019-05-23T07:49:42.311Z,16.10
2019-05-23T07:52:11.071Z,17.87
2019-05-23T07:54:48.638Z,14.90
2019-05-23T07:57:18.067Z,17.43
2019-05-23T07:59:47.513Z,17.20
2019-05-23T08:02:28.720Z,20.03
2019-05-23T08:04:58.179Z,18.83
2019-05-23T08:07:32.500Z,16.10
2019-05-23T08:09:59.137Z,19.53
2019-05-23T08:12:28.190Z,19.73
2019-05-23T08:14:57.098Z,16.70
2019-05-23T08:17:26.084Z,18.27
2019-05-23T08:19:55.192Z,18.37
2019-05-23T08:22:25.502Z,18.17
2019-05-23T08:24:54.507Z,20.77
2019-05-23T08:27:23.670Z,17.57
2019-05-23T08:29:52.830Z,16.90
2019-05-23T08:32:21.957Z,23.03
2019-05-23T08:34:51.030Z,23.50
2019-05-23T08:37:20.267Z,23.37
2019-05-23T08:39:50.064Z,20.93
2019-05-23T08:42:20.651Z,20.87
2019-05-23T08:44:49.537Z,24.40
2019-05-23T08:47:18.613Z,25.90
2019-05-23T08:49:47.418Z,23.40
2019-05-23T08:52:16.328Z,18.20
2019-05-23T08:54:45.514Z,22.75
2019-05-23T08:57:15.032Z,26.23
2019-05-23T08:59:44.665Z,28.17
2019-05-23T09:02:14.655Z,22.67
2019-05-23T09:05:02.150Z,25.03
2019-05-23T09:07:14.714Z,24.40
2019-05-23T09:09:43.804Z,25.40
2019-05-23T09:12:12.626Z,26.82
2019-05-23T09:14:41.639Z,29.80
2019-05-23T09:17:10.765Z,29.02
2019-05-23T09:19:40.388Z,24.50
2019-05-23T09:22:09.394Z,28.40
2019-05-23T09:24:38.546Z,22.43
2019-05-23T09:27:08.960Z,28.30
2019-05-23T09:29:38.886Z,27.27
2019-05-23T09:32:09.081Z,24.53
2019-05-23T09:34:38.124Z,24.47
2019-05-23T09:37:08.164Z,23.17
2019-05-23T09:39:38.808Z,26.93
2019-05-23T09:42:11.764Z,21.03
2019-05-23T09:44:38.539Z,18.60
2019-05-23T09:47:07.543Z,20.40
2019-05-23T09:49:36.603Z,20.30
2019-05-23T09:52:05.983Z,25.23
2019-05-23T09:54:35.009Z,24.53
2019-05-23T09:57:05.484Z,19.90
2019-05-23T09:59:34.373Z,20.27
2019-05-23T10:02:05.012Z,23.67
2019-05-23T10:04:33.978Z,22.10
2019-05-23T10:07:03.086Z,18.53
2019-05-23T10:09:31.922Z,16.87
2019-05-23T10:12:01.138Z,16.80
2019-05-23T10:14:33.383Z,13.40
2019-05-23T10:17:02.194Z,10.40
2019-05-23T10:19:31.298Z,13.47
2019-05-23T10:22:00.155Z,22.07
2019-05-23T10:24:29.317Z,17.20
2019-05-23T10:26:58.302Z,18.00
2019-05-23T10:29:27.088Z,8.10
2019-05-23T10:31:55.859Z,9.47
2019-05-23T10:34:24.724Z,12.37
2019-05-23T10:36:53.895Z,13.53
2019-05-23T10:39:23.150Z,11.57
2019-05-23T10:41:52.468Z,13.20
2019-05-23T10:44:21.799Z,9.70
2019-05-23T10:46:50.572Z,10.40
2019-05-23T10:49:19.684Z,16.27
2019-05-23T10:51:48.569Z,11.20
2019-05-23T10:54:17.408Z,12.37
2019-05-23T10:56:46.142Z,11.27
2019-05-23T10:59:15.573Z,12.97
2019-05-23T11:01:45.365Z,12.23
2019-05-23T11:04:14.415Z,15.03
2019-05-23T11:06:43.651Z,15.10
2019-05-23T11:09:12.449Z,14.50
2019-05-23T11:11:41.520Z,12.90
2019-05-23T11:14:11.662Z,10.53
2019-05-23T11:16:41.143Z,7.27
2019-05-23T11:19:10.260Z,8.77
2019-05-23T11:21:39.229Z,8.07
2019-05-23T11:24:10.853Z,6.60
2019-05-23T11:26:39.975Z,10.10
2019-05-23T11:29:08.805Z,6.80
2019-05-23T11:31:37.631Z,9.27
2019-05-23T11:34:06.742Z,6.60
2019-05-23T11:36:36.889Z,5.17
2019-05-23T11:39:08.135Z,4.37
2019-05-23T11:41:37.109Z,3.10
2019-05-23T11:44:06.459Z,6.17
2019-05-23T11:46:36.086Z,5.53
2019-05-23T11:49:06.399Z,4.30
2019-05-23T11:51:35.750Z,6.50
2019-05-23T11:54:08.415Z,5.40
2019-05-23T11:56:37.062Z,4.73
2019-05-23T11:59:06.587Z,4.80
2019-05-23T12:01:40.707Z,3.80
2019-05-23T12:04:12.758Z,5.92
2019-05-23T12:07:06.233Z,9.13
2019-05-23T12:09:36.603Z,9.28
2019-05-23T12:12:05.583Z,8.13
2019-05-23T12:14:34.677Z,9.28
2019-05-23T12:17:03.537Z,8.60
2019-05-23T12:19:32.516Z,10.10
2019-05-23T12:22:01.387Z,8.50
2019-05-23T12:24:34.440Z,8.63
2019-05-23T12:27:03.723Z,6.57
2019-05-23T12:29:32.486Z,5.87
2019-05-23T12:32:01.744Z,7.23
2019-05-23T12:34:30.533Z,6.47
2019-05-23T12:37:18.583Z,8.30
2019-05-23T12:39:30.414Z,8.80
2019-05-23T12:41:59.397Z,8.65
2019-05-23T12:44:28.358Z,10.27
2019-05-23T12:46:57.400Z,8.00
2019-05-23T12:49:39.386Z,8.00
2019-05-23T12:52:10.310Z,8.77
2019-05-23T12:54:39.566Z,10.03
2019-05-23T12:57:11.601Z,7.47
2019-05-23T12:59:40.338Z,10.17
2019-05-23T13:02:12.771Z,8.80
2019-05-23T13:04:41.898Z,6.13
2019-05-23T13:07:11.882Z,8.40
2019-05-23T13:09:41.566Z,7.33
2019-05-23T13:12:10.612Z,8.47
2019-05-23T13:14:39.680Z,8.30
2019-05-23T13:17:09.014Z,10.57
2019-05-23T13:19:38.289Z,8.33
2019-05-23T13:22:09.540Z,7.63
2019-05-23T13:24:51.975Z,7.57
2019-05-23T13:27:09.674Z,8.50
2019-05-23T13:29:39.113Z,7.90
2019-05-23T13:32:08.410Z,7.80
2019-05-23T13:34:37.981Z,10.40
2019-05-23T13:37:09.026Z,8.73
2019-05-23T13:39:38.141Z,9.20
2019-05-23T13:42:07.035Z,8.53
2019-05-23T13:44:36.465Z,10.30
2019-05-23T13:47:05.939Z,9.13
2019-05-23T13:49:34.835Z,9.03
2019-05-23T13:52:04.964Z,9.13
2019-05-23T13:54:36.684Z,13.03
2019-05-23T13:57:08.613Z,9.97
2019-05-23T13:59:40.532Z,10.70
2019-05-23T14:02:09.935Z,11.17
2019-05-23T14:04:39.146Z,9.37
2019-05-23T14:07:11.504Z,11.67
2019-05-23T14:09:40.421Z,9.23
2019-05-23T14:12:24.742Z,14.93
2019-05-23T14:14:40.091Z,9.57
2019-05-23T14:17:30.231Z,9.17
2019-05-23T14:19:59.253Z,9.78
2019-05-23T14:22:29.154Z,9.67
2019-05-23T14:24:58.100Z,10.10
2019-05-23T14:27:35.594Z,17.70
2019-05-23T14:30:12.615Z,10.70
2019-05-23T14:32:47.025Z,12.93
2019-05-23T14:35:19.089Z,13.17
2019-05-23T14:37:49.803Z,10.00
2019-05-23T14:40:19.439Z,11.50
2019-05-23T14:43:03.498Z,10.53
2019-05-23T14:45:39.867Z,10.07
2019-05-23T14:48:14.795Z,11.30
2019-05-23T14:51:06.011Z,11.13
2019-05-23T14:53:36.798Z,10.33
2019-05-23T14:56:07.438Z,8.83
2019-05-23T14:58:36.820Z,10.50
2019-05-23T15:01:10.405Z,10.07
2019-05-23T15:03:41.982Z,11.30
2019-05-23T15:06:10.719Z,11.10
2019-05-23T15:08:50.529Z,10.60
2019-05-23T15:11:11.231Z,11.17
2019-05-23T15:13:40.527Z,14.27
2019-05-23T15:16:10.362Z,12.83
2019-05-23T15:18:39.448Z,12.87
2019-05-23T15:21:08.468Z,8.30
2019-05-23T15:23:37.316Z,10.97
2019-05-23T15:26:21.627Z,9.67
2019-05-23T15:28:37.517Z,14.83
2019-05-23T15:31:07.116Z,16.07
2019-05-23T15:33:35.906Z,21.10
2019-05-23T15:36:04.922Z,12.33
2019-05-23T15:38:34.570Z,21.77
2019-05-23T15:41:03.618Z,99.00
2019-05-23T15:43:33.015Z,70.93
2019-05-23T15:46:01.870Z,15.60
2019-05-23T15:48:31.516Z,11.00
2019-05-23T15:51:00.330Z,12.33
2019-05-23T15:53:36.558Z,14.73
2019-05-23T15:56:30.512Z,14.67
2019-05-23T15:59:14.468Z,11.73
2019-05-23T16:01:53.918Z,16.23
2019-05-23T16:04:23.022Z,10.30
2019-05-23T16:06:52.447Z,7.70
2019-05-23T16:09:29.595Z,8.60
2019-05-23T16:11:53.287Z,15.93
2019-05-23T16:14:23.603Z,11.90
2019-05-23T16:16:56.258Z,11.40
2019-05-23T16:19:23.547Z,16.50
2019-05-23T16:21:55.596Z,16.30
2019-05-23T16:24:25.586Z,15.43
2019-05-23T16:26:54.392Z,10.13
2019-05-23T16:29:23.907Z,11.77
2019-05-23T16:31:54.142Z,12.53
2019-05-23T16:34:23.327Z,13.47
2019-05-23T16:36:52.336Z,12.37
2019-05-23T16:39:21.863Z,11.30
2019-05-23T16:41:50.769Z,10.70
2019-05-23T16:44:19.586Z,13.03
2019-05-23T16:46:48.643Z,14.77
2019-05-23T16:49:17.879Z,12.40
2019-05-23T16:51:46.691Z,12.93
2019-05-23T16:54:17.526Z,11.97
2019-05-23T16:56:53.984Z,13.00
2019-05-23T16:59:32.980Z,10.65
2019-05-23T17:02:12.432Z,16.33
2019-05-23T17:05:09.735Z,11.50
2019-05-23T17:07:43.015Z,10.10
2019-05-23T17:10:20.799Z,11.73
2019-05-23T17:12:58.234Z,13.05
2019-05-23T17:15:47.649Z,12.20
2019-05-23T17:18:34.714Z,18.47
2019-05-23T17:21:19.635Z,13.30
2019-05-23T17:23:58.207Z,12.50
2019-05-23T17:26:49.220Z,13.23
2019-05-23T17:29:25.946Z,13.33
2019-05-23T17:31:56.266Z,12.10
2019-05-23T17:34:25.122Z,12.43
2019-05-23T17:36:54.279Z,11.20
2019-05-23T17:39:24.076Z,13.87
2019-05-23T17:41:53.587Z,15.63
2019-05-23T17:44:22.487Z,13.90
2019-05-23T17:46:51.247Z,11.38
2019-05-23T17:49:20.174Z,12.70
2019-05-23T17:51:49.134Z,15.83
2019-05-23T17:54:18.608Z,14.97
2019-05-23T17:56:47.786Z,12.07
2019-05-23T17:59:17.071Z,12.00
2019-05-23T18:01:46.281Z,12.20
2019-05-23T18:04:17.213Z,12.35
2019-05-23T18:06:46.980Z,8.53
2019-05-23T18:09:16.270Z,8.13
2019-05-23T18:11:45.905Z,7.67
2019-05-23T18:14:15.445Z,10.70
2019-05-23T18:16:44.371Z,9.80
2019-05-23T18:19:13.310Z,9.23
2019-05-23T18:21:43.753Z,8.77
2019-05-23T18:24:15.031Z,8.70
2019-05-23T18:26:43.865Z,8.10
2019-05-23T18:29:14.755Z,6.90
2019-05-23T18:31:45.445Z,8.53
2019-05-23T18:34:15.121Z,7.93
2019-05-23T18:36:43.937Z,8.87
2019-05-23T18:39:16.294Z,9.20
2019-05-23T18:41:45.698Z,10.10
2019-05-23T18:44:14.947Z,11.40
2019-05-23T18:46:47.250Z,10.00
2019-05-23T18:49:16.339Z,58.23
2019-05-23T18:51:45.677Z,111.50
2019-05-23T18:54:14.522Z,41.57
2019-05-23T18:56:43.344Z,26.97
2019-05-23T18:59:13.425Z,15.47
2019-05-23T19:01:42.606Z,14.23
2019-05-23T19:04:12.079Z,16.50
2019-05-23T19:06:41.250Z,16.10
2019-05-23T19:09:14.016Z,12.13
2019-05-23T19:11:43.098Z,55.25
2019-05-23T19:14:11.887Z,34.55
2019-05-23T19:16:41.406Z,115.43
2019-05-23T19:19:10.563Z,173.93
2019-05-23T19:21:39.526Z,99.93
2019-05-23T19:24:08.447Z,19.83
2019-05-23T19:26:37.471Z,14.63
2019-05-23T19:29:07.666Z,27.87
2019-05-23T19:31:37.379Z,56.50
2019-05-23T19:34:06.259Z,113.77
2019-05-23T19:36:35.084Z,18.00
2019-05-23T19:39:06.294Z,12.20
2019-05-23T19:41:37.886Z,10.33
2019-05-23T19:44:06.186Z,15.97
2019-05-23T19:46:35.865Z,14.70
2019-05-23T19:49:05.954Z,17.90
2019-05-23T19:51:37.243Z,40.70
2019-05-23T19:54:07.171Z,100.12
2019-05-23T19:56:36.926Z,30.27
2019-05-23T19:59:07.036Z,17.23
2019-05-23T20:01:47.184Z,12.00
2019-05-23T20:04:16.567Z,10.00
2019-05-23T20:06:46.726Z,17.10
2019-05-23T20:09:19.962Z,22.53
2019-05-23T20:11:54.546Z,31.57
2019-05-23T20:14:20.936Z,16.20
2019-05-23T20:16:49.906Z,74.77
2019-05-23T20:19:19.147Z,43.43
2019-05-23T20:21:48.455Z,27.43
2019-05-23T20:24:17.294Z,15.70
2019-05-23T20:26:46.093Z,11.08
2019-05-23T20:29:15.270Z,35.63
2019-05-23T20:31:47.755Z,35.07
2019-05-23T20:34:14.910Z,46.98
2019-05-23T20:36:43.650Z,20.50
2019-05-23T20:39:11.813Z,14.70
2019-05-23T20:41:41.139Z,10.13
2019-05-23T20:44:10.603Z,8.17
2019-05-23T20:46:39.639Z,14.90
2019-05-23T20:49:09.023Z,15.37
2019-05-23T20:51:37.819Z,8.57
2019-05-23T20:54:06.618Z,29.80
2019-05-23T20:56:35.630Z,59.33
2019-05-23T20:59:05.317Z,49.70
2019-05-23T21:01:38.254Z,30.92
2019-05-23T21:04:07.121Z,55.53
2019-05-23T21:06:36.219Z,47.78
2019-05-23T21:09:07.574Z,179.47
2019-05-23T21:11:36.710Z,245.20
2019-05-23T21:14:05.697Z,165.97
2019-05-23T21:16:34.602Z,155.17
2019-05-23T21:19:03.717Z,88.00
2019-05-23T21:21:32.876Z,27.17
2019-05-23T21:24:01.617Z,17.30
2019-05-23T21:26:30.634Z,15.13
2019-05-23T21:28:59.635Z,22.10
2019-05-23T21:31:28.646Z,19.73
2019-05-23T21:33:57.541Z,10.80
2019-05-23T21:36:26.292Z,10.10
2019-05-23T21:38:55.111Z,12.73
2019-05-23T21:41:23.858Z,20.20
2019-05-23T21:43:54.598Z,18.93
2019-05-23T21:46:23.577Z,36.80
2019-05-23T21:48:52.890Z,23.93
2019-05-23T21:51:21.880Z,49.37
2019-05-23T21:53:50.933Z,54.10
2019-05-23T21:56:19.951Z,28.03
2019-05-23T21:58:48.769Z,27.35
2019-05-23T22:01:37.274Z,21.80
2019-05-23T22:04:34.652Z,20.20
2019-05-23T22:07:07.663Z,17.52
2019-05-23T22:09:36.633Z,10.88
2019-05-23T22:12:06.851Z,12.83
2019-05-23T22:14:36.758Z,10.73
2019-05-23T22:17:06.375Z,18.03
2019-05-23T22:19:35.881Z,13.00
2019-05-23T22:22:05.674Z,17.73
2019-05-23T22:24:34.641Z,9.10
2019-05-23T22:27:04.609Z,15.13
2019-05-23T22:29:33.329Z,8.30
2019-05-23T22:32:02.433Z,9.90
2019-05-23T22:34:38.073Z,12.23
2019-05-23T22:37:19.901Z,11.10
2019-05-23T22:39:49.034Z,11.68
2019-05-23T22:42:19.062Z,10.30
2019-05-23T22:44:48.060Z,12.80
2019-05-23T22:47:17.096Z,10.30
2019-05-23T22:49:45.922Z,12.35
2019-05-23T22:52:14.935Z,10.57
2019-05-23T22:54:43.677Z,11.33
2019-05-23T22:57:13.203Z,9.90
2019-05-23T22:59:42.658Z,12.30
2019-05-23T23:02:16.049Z,8.60
2019-05-23T23:04:45.153Z,10.20
2019-05-23T23:07:14.122Z,9.33
2019-05-23T23:09:42.926Z,9.80
2019-05-23T23:12:12.308Z,10.97
2019-05-23T23:14:41.041Z,13.20
2019-05-23T23:17:09.961Z,10.83
2019-05-23T23:19:39.122Z,12.90
2019-05-23T23:22:10.340Z,9.93
2019-05-23T23:24:39.318Z,10.97
2019-05-23T23:27:08.214Z,9.90
2019-05-23T23:29:37.329Z,11.70
2019-05-23T23:32:06.508Z,9.73
2019-05-23T23:34:35.321Z,10.00
2019-05-23T23:37:04.383Z,9.60
2019-05-23T23:39:33.511Z,9.40
2019-05-23T23:42:02.279Z,11.77
2019-05-23T23:44:36.609Z,10.40
2019-05-23T23:47:24.636Z,10.60
2019-05-23T23:50:11.386Z,9.40
2019-05-23T23:52:58.517Z,9.37
2019-05-23T23:55:45.305Z,10.58
2019-05-23T23:58:13.507Z,9.40
